Acre, Israel
Current Conditions -  °F | °C
As of 8:50 PM on Monday 22 Dec 2014 (Local Time) from LLHA Reporting Station
Broken Clouds Broken Clouds  
Wind Chill: 61°   Ceiling: 4000
Heat Index: 61°   Visibility: 6mi
Dew Point: 57°   Wind: 9mph
Humidity: 88%   Direction: 350°N
Pressure: 30"   Gusts: NA
Location:  32.93°N, 35.08°E
Report Text: LLHA 221750Z 35008KT 9999 BKN040 16/14 Q1016 RERA RESHGR
Loading
Personal Weather Stations






























Interactive Weather Map New forecast layout! Learn more

10-Day Weather Forecast

Advertisements
Track Severe Weather on mobile